• Join FlightAware (Why Join?)
  • Login
  • US Flag 
02:52PM EDT


 

Airport Tracker/Info


-or-


 

Live Flight TrackerFlight Track Log ✈ CSJ405 ✈ 07-May-2013 ✈ CYMX - KALB

Flight Track Log - Related Links

Times and Time Zones

All times are in EDT time to prevent confusion due to time zone crossing. See the CSJ405 flight status page for this flight to view local times or setup timezone preferences in your user account.

Time Position Orientation Groundspeed Altitude Reporting Facility
EDT Latitude Longitude Course Direction KTS MPH feet Rate Location/Type
04:54AM 45.6833 -73.9833 190° South 120 138 1,400  Level Montreal Center
04:55AM 45.6833 -73.9333 90° East 120 138 2,600 1,080 Climbing Montreal Center
04:56AM 45.6500 -73.9000 145° Southeast 130 150 3,600 960 Climbing Montreal Center
04:57AM 45.6167 -73.9000 180° South 130 150 4,600 960 Climbing Montreal Center
04:58AM 45.5833 -73.9167 199° South 120 138 5,600 900 Climbing Montreal Center
04:59AM 45.3530 -74.0111 190° South  Level Estimated
04:59AM 45.5500 -73.9167 180° South 130 150 6,500  Level Montreal Center
05:00AM 45.5000 -73.9167 180° South 140 161 7,300 780 Climbing Montreal Center
05:01AM 45.4667 -73.9167 180° South 140 161 8,100 720 Climbing Montreal Center
05:02AM 45.4333 -73.9167 180° South 150 173 8,800 720 Climbing Montreal Center
05:03AM 45.3833 -73.9167 180° South 140 161 9,600 600 Climbing Montreal Center
05:04AM 45.3500 -73.9167 180° South 150 173 10,000 180 Climbing Montreal Center
05:05AM 45.3000 -73.9000 167° South 160 184 10,000  Level Montreal Center
05:06AM 45.2667 -73.9000 180° South 160 184 10,000  Level Montreal Center
05:07AM 45.2167 -73.9000 180° South 160 184 10,000  Level Montreal Center
05:08AM 45.1667 -73.9000 180° South 160 184 10,000  Level Montreal Center
05:09AM 45.1167 -73.9000 180° South 160 184 10,000  Level Montreal Center
05:10AM 45.0833 -73.9000 180° South 170 196 10,000  Level Montreal Center
05:11AM 45.0333 -73.8833 167° South 160 184 10,000  Level Montreal Center
05:12AM 44.9833 -73.8833 180° South 160 184 10,000  Level Montreal Center
05:13AM 44.9500 -73.8833 180° South 160 184 10,000  Level Montreal Center
05:14AM 44.9000 -73.8833 180° South 160 184 10,000  Level Montreal Center
05:15AM 44.8708 -73.8986 200° South 160 184 10,100  Climbing Boston Center
05:16AM 44.8250 -73.8917 174° South 160 184 10,100  Level Boston Center
05:17AM 44.7814 -73.8936 182° South 160 184 10,100  Level Boston Center
05:18AM 44.7356 -73.8925 179° South 160 184 10,100  Level Boston Center
05:19AM 44.6856 -73.8883 177° South 160 184 10,100  Level Boston Center
05:20AM 44.6419 -73.8872 179° South 160 184 10,100  Level Boston Center
05:21AM 44.5981 -73.8833 176° South 160 184 10,100  Level Boston Center
05:22AM 44.5439 -73.8819 179° South 160 184 10,100  Level Boston Center
05:23AM 44.5003 -73.8808 179° South 160 184 10,100  Level Boston Center
05:24AM 44.4586 -73.8797 179° South 160 184 10,100  Level Boston Center
05:25AM 44.4128 -73.8786 179° South 160 184 10,100  Level Boston Center
05:26AM 44.3669 -73.8775 179° South 160 184 10,100  Level Boston Center
05:27AM 44.3211 -73.8764 179° South 160 184 10,100  Level Boston Center
05:28AM 44.2692 -73.8694 175° South 160 184 10,100  Level Boston Center
05:29AM 44.2253 -73.8683 179° South 160 184 10,100  Level Boston Center
05:30AM 44.1839 -73.8644 176° South 160 184 10,100  Level Boston Center
05:31AM 44.1400 -73.8633 179° South 160 184 10,100  Level Boston Center
05:32AM 44.0881 -73.8592 177° South 160 184 10,100  Level Boston Center
05:33AM 44.0442 -73.8583 179° South 160 184 10,100  Level Boston Center
05:34AM 43.9983 -73.8572 179° South 160 184 10,100  Level Boston Center
05:35AM 43.9525 -73.8531 176° South 160 184 10,100  Level Boston Center
05:36AM 43.8964 -73.8519 179° South 165 190 10,100  Level Boston Center
05:37AM 43.8422 -73.8506 179° South 165 190 10,100  Level Boston Center
05:38AM 43.7964 -73.8494 179° South 165 190 10,100  Level Boston Center
05:39AM 43.7506 -73.8483 179° South 165 190 10,100  Level Boston Center
05:40AM 43.7089 -73.8444 176° South 160 184 10,100  Level Boston Center
05:41AM 43.6650 -73.8436 179° South 160 184 10,100  Level Boston Center
05:42AM 43.6194 -73.8397 176° South 160 184 10,100  Level Boston Center
05:43AM 43.5756 -73.8386 179° South 160 184 10,100  Level Boston Center
05:44AM 43.5319 -73.8375 179° South 160 184 10,100  Level Boston Center
05:45AM 43.4881 -73.8336 176° South 160 184 10,100  Level Boston Center
05:46AM 43.4422 -73.8328 179° South 160 184 10,100  Level Boston Center
05:47AM 43.3986 -73.8289 176° South 160 184 10,100  Level Boston Center
05:48AM 43.3528 -73.8306 182° South 165 190 10,100 -360 Level Boston Center
05:49AM 43.3131 -73.8325 182° South 167 192 9,500 -660 Descending Boston Center
05:50AM 43.2631 -73.8286 177° South 178 205 8,800 -780 Descending Boston Center
05:51AM 43.2111 -73.8217 174° South 180 207 8,000 -840 Descending Boston Center
05:52AM 43.1589 -73.8292 186° South 183 211 7,200 -660 Descending Boston Center
05:53AM 43.1089 -73.8222 174° South 180 207 6,700 -540 Descending Boston Center
05:54AM 43.0589 -73.8183 177° South 180 207 6,200 -600 Descending Boston Center
05:55AM 43.0028 -73.8114 175° South 184 212 5,500 -780 Descending Boston Center
05:56AM 42.9506 -73.8158 184° South 192 221 4,700 -960 Descending Boston Center
05:57AM 42.8964 -73.8147 179° South 192 221 3,600 -1,320 Descending Boston Center
05:58AM 42.8444 -73.8106 177° South 177 204 2,100 -1,140 Descending Boston Center
05:59AM 42.7964 -73.8097 179° South 164 189 1,300 -840 Descending Boston Center
06:00AM 42.7653 -73.8061 175° South 108 124 500 -840 Descending Boston Center
06:02AM 42.7491 -73.8020 North  Level Estimated
06:09AM 42.7491 -73.8020 North  Level Estimated
06:10AM 42.7491 -73.8020 North  Level Estimated
06:11AM 42.7491 -73.8020 North  Level Estimated